createdAt,value
2022-12-27T00:00:13.904Z,27.00
2022-12-27T00:03:02.834Z,25.80
2022-12-27T00:05:31.787Z,25.70
2022-12-27T00:08:00.606Z,25.10
2022-12-27T00:10:29.553Z,25.10
2022-12-27T00:12:58.507Z,27.30
2022-12-27T00:15:27.724Z,24.60
2022-12-27T00:17:56.583Z,25.90
2022-12-27T00:20:25.653Z,25.50
2022-12-27T00:22:54.597Z,25.40
2022-12-27T00:25:23.541Z,26.60
2022-12-27T00:27:52.361Z,25.20
2022-12-27T00:30:21.269Z,27.90
2022-12-27T00:32:50.154Z,27.90
2022-12-27T00:35:19.145Z,25.80
2022-12-27T00:37:47.990Z,25.70
2022-12-27T00:40:17.006Z,27.70
2022-12-27T00:42:45.839Z,24.30
2022-12-27T00:45:15.247Z,23.90
2022-12-27T00:47:44.112Z,25.10
2022-12-27T00:50:12.951Z,22.50
2022-12-27T00:52:41.791Z,27.20
2022-12-27T00:55:11.116Z,25.90
2022-12-27T00:57:40.041Z,21.90
2022-12-27T01:00:12.031Z,24.70
2022-12-27T01:02:41.290Z,24.60
2022-12-27T01:05:10.391Z,25.30
2022-12-27T01:07:39.404Z,26.10
2022-12-27T01:10:09.365Z,28.60
2022-12-27T01:12:38.452Z,24.70
2022-12-27T01:15:09.694Z,26.80
2022-12-27T01:17:38.665Z,26.80
2022-12-27T01:20:09.802Z,26.40
2022-12-27T01:22:38.623Z,24.60
2022-12-27T01:25:09.153Z,26.50
2022-12-27T01:27:38.025Z,26.00
2022-12-27T01:30:09.599Z,27.40
2022-12-27T01:32:38.460Z,30.40
2022-12-27T01:35:08.636Z,27.40
2022-12-27T01:37:37.473Z,27.00
2022-12-27T01:40:09.069Z,25.70
2022-12-27T01:42:53.273Z,25.20
2022-12-27T01:45:23.750Z,23.60
2022-12-27T01:47:58.680Z,29.40
2022-12-27T01:50:32.303Z,28.80
2022-12-27T01:53:06.729Z,28.20
2022-12-27T01:55:42.771Z,30.00
2022-12-27T02:00:44.113Z,28.00
2022-12-27T02:03:17.540Z,30.10
2022-12-27T02:05:46.502Z,33.00
2022-12-27T02:08:28.799Z,34.00
2022-12-27T02:10:58.656Z,27.40
2022-12-27T02:13:29.028Z,29.90
2022-12-27T02:15:57.863Z,31.00
2022-12-27T02:18:26.779Z,28.40
2022-12-27T02:21:23.141Z,30.60
2022-12-27T02:24:22.402Z,30.30
2022-12-27T02:27:00.679Z,27.20
2022-12-27T02:29:43.305Z,29.60
2022-12-27T02:32:17.283Z,33.20
2022-12-27T02:34:56.332Z,28.40
2022-12-27T02:37:30.480Z,28.40
2022-12-27T02:40:21.633Z,26.00
2022-12-27T02:43:09.656Z,29.30
2022-12-27T02:46:00.622Z,27.10
2022-12-27T02:48:47.757Z,27.60
2022-12-27T02:51:49.202Z,29.40
2022-12-27T02:54:38.142Z,27.70
2022-12-27T02:57:18.727Z,31.10
2022-12-27T03:00:27.882Z,31.80
2022-12-27T03:03:23.900Z,30.70
2022-12-27T03:06:40.709Z,33.60
2022-12-27T03:09:45.599Z,30.50
2022-12-27T03:12:43.359Z,35.10
2022-12-27T03:15:42.810Z,33.40
2022-12-27T03:18:18.730Z,30.60
2022-12-27T03:21:08.001Z,34.10
2022-12-27T03:23:56.683Z,27.60
2022-12-27T03:26:30.760Z,29.20
2022-12-27T03:29:20.259Z,30.30
2022-12-27T03:32:12.204Z,28.00
2022-12-27T03:34:46.894Z,30.70
2022-12-27T03:37:36.826Z,29.60
2022-12-27T03:40:11.186Z,29.90
2022-12-27T03:43:05.520Z,30.80
2022-12-27T03:46:03.483Z,30.90
2022-12-27T03:48:39.010Z,28.10
2022-12-27T03:51:08.863Z,33.90
2022-12-27T03:53:40.983Z,33.30
2022-12-27T03:56:11.324Z,35.90
2022-12-27T03:58:40.343Z,32.20
2022-12-27T04:01:09.326Z,35.50
2022-12-27T04:03:38.447Z,28.80
2022-12-27T04:06:07.818Z,33.50
2022-12-27T04:08:54.990Z,28.80
2022-12-27T04:11:42.162Z,35.30
2022-12-27T04:14:29.264Z,31.30
2022-12-27T04:17:16.507Z,34.20
2022-12-27T04:20:03.569Z,35.60
2022-12-27T04:22:50.780Z,37.60
2022-12-27T04:25:37.977Z,36.70
2022-12-27T04:28:25.079Z,35.60
2022-12-27T04:31:12.376Z,33.70
2022-12-27T04:33:59.824Z,33.60
2022-12-27T04:36:28.784Z,29.60
2022-12-27T04:38:57.653Z,26.40
2022-12-27T04:41:44.863Z,34.90
2022-12-27T04:44:31.873Z,34.70
2022-12-27T04:47:19.098Z,35.60
2022-12-27T04:50:06.294Z,33.40
2022-12-27T04:52:53.839Z,31.00
2022-12-27T04:55:24.389Z,34.30
2022-12-27T04:57:54.220Z,37.80
2022-12-27T05:00:44.150Z,37.30
2022-12-27T05:03:16.208Z,33.30
2022-12-27T05:05:46.795Z,39.10
2022-12-27T05:08:34.579Z,32.80
2022-12-27T05:11:21.868Z,36.20
2022-12-27T05:13:59.825Z,41.70
2022-12-27T05:16:29.753Z,33.50
2022-12-27T05:18:58.661Z,35.70
2022-12-27T05:21:27.895Z,33.10
2022-12-27T05:24:15.231Z,35.00
2022-12-27T05:26:44.200Z,35.80
2022-12-27T05:29:13.028Z,36.10
2022-12-27T05:31:41.923Z,35.00
2022-12-27T05:34:10.937Z,35.10
2022-12-27T05:36:39.752Z,32.00
2022-12-27T05:39:08.628Z,37.90
2022-12-27T05:41:37.437Z,37.10
2022-12-27T05:44:07.567Z,38.60
2022-12-27T05:46:36.726Z,32.50
2022-12-27T05:49:05.813Z,36.00
2022-12-27T05:51:34.659Z,38.40
2022-12-27T05:54:03.604Z,37.90
2022-12-27T05:56:34.873Z,34.20
2022-12-27T05:59:03.703Z,46.90
2022-12-27T06:01:32.629Z,38.80
2022-12-27T06:04:01.761Z,41.30
2022-12-27T06:06:31.308Z,36.00
2022-12-27T06:09:00.244Z,39.80
2022-12-27T06:11:29.099Z,37.60
2022-12-27T06:13:57.923Z,38.10
2022-12-27T06:16:26.809Z,40.20
2022-12-27T06:18:55.697Z,38.50
2022-12-27T06:21:24.666Z,35.30
2022-12-27T06:23:53.521Z,38.10
2022-12-27T06:26:24.557Z,38.10
2022-12-27T06:28:54.671Z,36.70
2022-12-27T06:31:24.659Z,35.90
2022-12-27T06:33:54.271Z,38.00
2022-12-27T06:36:25.822Z,40.40
2022-12-27T06:38:54.719Z,40.80
2022-12-27T06:41:23.832Z,38.00
2022-12-27T06:43:56.935Z,36.60
2022-12-27T06:46:26.043Z,42.50
2022-12-27T06:48:54.911Z,40.60
2022-12-27T06:51:23.771Z,34.80
2022-12-27T06:53:52.703Z,35.70
2022-12-27T06:56:23.298Z,40.80
2022-12-27T06:58:53.411Z,41.30
2022-12-27T07:01:24.461Z,44.50
2022-12-27T07:03:55.481Z,39.50
2022-12-27T07:06:25.639Z,42.40
2022-12-27T07:08:56.040Z,41.40
2022-12-27T07:11:26.077Z,38.40
2022-12-27T07:13:55.723Z,39.10
2022-12-27T07:16:26.950Z,46.60
2022-12-27T07:18:57.742Z,39.30
2022-12-27T07:21:29.090Z,38.20
2022-12-27T07:23:57.962Z,44.60
2022-12-27T07:26:29.291Z,40.40
2022-12-27T07:28:59.959Z,41.60
2022-12-27T07:31:31.429Z,41.10
2022-12-27T07:34:02.861Z,43.30
2022-12-27T07:36:35.511Z,45.00
2022-12-27T07:39:05.079Z,45.40
2022-12-27T07:41:34.572Z,46.90
2022-12-27T07:44:04.415Z,43.80
2022-12-27T07:46:33.798Z,43.20
2022-12-27T07:49:02.736Z,40.80
2022-12-27T07:51:31.544Z,47.70
2022-12-27T07:54:01.284Z,42.60
2022-12-27T07:56:30.578Z,41.90
2022-12-27T07:59:00.791Z,38.50
2022-12-27T08:01:59.567Z,44.50
2022-12-27T08:04:28.621Z,42.10
2022-12-27T08:07:02.058Z,43.60
2022-12-27T08:09:34.454Z,47.70
2022-12-27T08:12:03.372Z,46.40
2022-12-27T08:14:32.210Z,43.90
2022-12-27T08:17:05.718Z,44.90
2022-12-27T08:19:34.734Z,41.70
2022-12-27T08:22:04.614Z,45.30
2022-12-27T08:24:33.652Z,43.50
2022-12-27T08:27:02.595Z,43.40
2022-12-27T08:29:31.495Z,45.50
2022-12-27T08:32:00.419Z,47.40
2022-12-27T08:34:29.295Z,43.10
2022-12-27T08:36:58.265Z,53.00
2022-12-27T08:39:29.463Z,44.10
2022-12-27T08:41:58.766Z,43.40
2022-12-27T08:44:27.693Z,41.70
2022-12-27T08:46:56.539Z,44.60
2022-12-27T08:49:25.490Z,42.40
2022-12-27T08:51:54.398Z,39.90
2022-12-27T08:54:23.774Z,43.40
2022-12-27T08:56:52.819Z,38.90
2022-12-27T08:59:21.777Z,38.00
2022-12-27T09:01:50.825Z,44.00
2022-12-27T09:04:19.998Z,32.90
2022-12-27T09:06:48.836Z,36.20
2022-12-27T09:09:18.099Z,45.80
2022-12-27T09:11:47.030Z,38.90
2022-12-27T09:14:15.901Z,37.80
2022-12-27T09:16:44.857Z,38.90
2022-12-27T09:19:13.856Z,40.50
2022-12-27T09:21:43.874Z,37.60
2022-12-27T09:24:14.049Z,37.10
2022-12-27T09:26:43.056Z,35.00
2022-12-27T09:29:11.935Z,30.40
2022-12-27T09:31:40.828Z,31.20
2022-12-27T09:34:10.695Z,34.90
2022-12-27T09:36:41.627Z,36.20
2022-12-27T09:39:13.065Z,28.30
2022-12-27T09:42:45.842Z,32.60
2022-12-27T09:44:50.232Z,34.70
2022-12-27T09:47:25.038Z,29.50
2022-12-27T09:49:58.372Z,30.10
2022-12-27T09:52:34.502Z,29.10
2022-12-27T09:55:12.038Z,33.50
2022-12-27T09:57:43.693Z,30.50
2022-12-27T10:00:18.934Z,37.70
2022-12-27T10:02:48.535Z,32.10
2022-12-27T10:05:22.526Z,26.00
2022-12-27T10:08:05.158Z,28.40
2022-12-27T10:10:43.102Z,32.40
2022-12-27T10:13:29.683Z,28.10
2022-12-27T10:16:07.244Z,37.90
2022-12-27T10:18:49.481Z,26.20
2022-12-27T10:21:24.296Z,27.90
2022-12-27T10:23:56.691Z,35.90
2022-12-27T10:26:25.904Z,27.40
2022-12-27T10:29:00.810Z,28.30
2022-12-27T10:31:32.060Z,29.20
2022-12-27T10:34:03.924Z,24.80
2022-12-27T10:36:35.476Z,24.80
2022-12-27T10:39:06.018Z,26.90
2022-12-27T10:41:49.513Z,27.30
2022-12-27T10:44:18.363Z,25.80
2022-12-27T10:46:52.616Z,27.00
2022-12-27T10:49:26.452Z,24.10
2022-12-27T10:51:58.249Z,24.90
2022-12-27T10:54:29.466Z,24.40
2022-12-27T10:57:18.675Z,27.60
2022-12-27T11:00:17.825Z,25.90
2022-12-27T11:02:54.221Z,39.70
2022-12-27T11:05:25.950Z,25.80
2022-12-27T11:07:55.601Z,26.90
2022-12-27T11:10:27.387Z,28.40
2022-12-27T11:13:01.289Z,33.80
2022-12-27T11:15:33.409Z,33.60
2022-12-27T11:18:09.752Z,25.20
2022-12-27T11:20:42.438Z,27.40
2022-12-27T11:23:15.934Z,25.30
2022-12-27T11:25:53.717Z,27.60
2022-12-27T11:28:29.901Z,21.50
2022-12-27T11:31:01.196Z,24.40
2022-12-27T11:33:38.629Z,22.70
2022-12-27T11:36:11.259Z,20.10
2022-12-27T11:38:44.170Z,19.30
2022-12-27T11:41:24.585Z,21.30
2022-12-27T11:44:01.706Z,23.60
2022-12-27T11:46:40.140Z,21.30
2022-12-27T11:49:16.753Z,21.60
2022-12-27T11:52:16.593Z,23.20
2022-12-27T11:55:03.699Z,29.50
2022-12-27T11:57:54.385Z,22.80
2022-12-27T12:00:31.341Z,20.30
2022-12-27T12:03:31.371Z,44.50
2022-12-27T12:06:12.160Z,23.30
2022-12-27T12:09:09.378Z,18.50
2022-12-27T12:11:56.708Z,20.10
2022-12-27T12:14:56.462Z,24.50
2022-12-27T12:17:49.666Z,17.40
2022-12-27T12:23:34.874Z,22.00
2022-12-27T12:26:18.043Z,19.10
2022-12-27T12:29:21.658Z,21.70
2022-12-27T12:32:33.750Z,21.20
2022-12-27T12:35:26.485Z,24.50
2022-12-27T12:38:06.146Z,22.90
2022-12-27T12:40:57.975Z,20.90
2022-12-27T12:43:57.278Z,19.20
2022-12-27T12:46:38.126Z,33.60
2022-12-27T12:49:30.814Z,26.80
2022-12-27T12:52:25.633Z,28.10
2022-12-27T12:55:40.330Z,22.40
2022-12-27T12:58:24.311Z,22.80
2022-12-27T13:01:20.067Z,22.40
2022-12-27T13:04:43.343Z,23.10
2022-12-27T13:07:42.951Z,22.40
2022-12-27T13:10:40.259Z,19.90
2022-12-27T13:13:20.195Z,24.20
2022-12-27T13:16:13.694Z,20.70
2022-12-27T13:18:57.367Z,21.70
2022-12-27T13:21:46.641Z,26.30
2022-12-27T13:24:30.135Z,20.00
2022-12-27T13:27:11.247Z,21.40
2022-12-27T13:30:05.988Z,18.10
2022-12-27T13:32:49.794Z,19.10
2022-12-27T13:35:36.940Z,15.50
2022-12-27T13:38:25.001Z,20.50
2022-12-27T13:41:30.742Z,22.80
2022-12-27T13:44:32.119Z,20.90
2022-12-27T13:47:25.854Z,18.80
2022-12-27T13:50:16.360Z,18.30
2022-12-27T13:53:03.298Z,18.90
2022-12-27T13:55:43.601Z,21.40
2022-12-27T13:58:46.990Z,22.00
2022-12-27T14:01:44.240Z,18.50
2022-12-27T14:04:39.973Z,20.20
2022-12-27T14:07:28.729Z,22.00
2022-12-27T14:10:27.301Z,23.70
2022-12-27T14:13:03.059Z,17.10
2022-12-27T14:15:59.939Z,20.40
2022-12-27T14:18:54.828Z,18.50
2022-12-27T14:21:52.222Z,16.60
2022-12-27T14:24:51.738Z,20.40
2022-12-27T14:28:26.661Z,15.20
2022-12-27T14:31:31.809Z,26.40
2022-12-27T14:34:37.929Z,22.90
2022-12-27T14:37:48.531Z,19.60
2022-12-27T14:40:53.527Z,18.80
2022-12-27T14:43:55.800Z,29.70
2022-12-27T14:46:50.354Z,19.20
2022-12-27T14:49:51.180Z,20.30
2022-12-27T14:52:52.631Z,22.40
2022-12-27T14:55:41.640Z,21.00
2022-12-27T14:58:28.858Z,27.00
2022-12-27T15:01:14.201Z,24.10
2022-12-27T15:04:08.946Z,17.10
2022-12-27T15:07:17.367Z,22.30
2022-12-27T15:09:58.841Z,19.90
2022-12-27T15:12:41.245Z,18.80
2022-12-27T15:15:28.994Z,24.70
2022-12-27T15:18:31.491Z,19.60
2022-12-27T15:21:41.288Z,18.00
2022-12-27T15:24:26.695Z,24.50
2022-12-27T15:27:08.584Z,21.90
2022-12-27T15:29:52.623Z,21.10
2022-12-27T15:32:34.041Z,22.70
2022-12-27T15:35:35.064Z,24.60
2022-12-27T15:38:13.209Z,25.50
2022-12-27T15:41:15.892Z,24.60
2022-12-27T15:44:21.502Z,25.80
2022-12-27T15:47:24.234Z,38.80
2022-12-27T15:50:33.950Z,22.30
2022-12-27T15:53:33.754Z,24.40
2022-12-27T15:56:30.700Z,22.50
2022-12-27T15:59:41.432Z,23.00
2022-12-27T16:02:51.266Z,20.30
2022-12-27T16:05:47.485Z,23.60
2022-12-27T16:08:29.174Z,22.20
2022-12-27T16:11:02.956Z,27.70
2022-12-27T16:13:48.435Z,19.60
2022-12-27T16:16:57.139Z,20.70
2022-12-27T16:19:47.558Z,20.90
2022-12-27T16:22:32.126Z,22.70
2022-12-27T16:25:25.510Z,21.50
2022-12-27T16:28:11.130Z,18.90
2022-12-27T16:30:47.812Z,17.70
2022-12-27T16:33:35.421Z,21.00
2022-12-27T16:36:23.314Z,16.00
2022-12-27T16:39:26.213Z,17.20
2022-12-27T16:42:07.667Z,14.90
2022-12-27T16:45:05.613Z,17.40
2022-12-27T16:47:57.573Z,17.50
2022-12-27T16:50:55.737Z,17.00
2022-12-27T16:53:46.245Z,17.80
2022-12-27T16:56:25.306Z,17.70
2022-12-27T16:58:58.074Z,12.70
2022-12-27T17:02:01.614Z,15.90
2022-12-27T17:05:00.550Z,19.30
2022-12-27T17:08:11.404Z,12.70
2022-12-27T17:10:58.676Z,11.30
2022-12-27T17:13:47.872Z,9.80
2022-12-27T17:16:23.905Z,10.80
2022-12-27T17:19:00.956Z,12.10
2022-12-27T17:21:35.395Z,14.20
2022-12-27T17:24:12.142Z,18.40
2022-12-27T17:27:14.783Z,16.50
2022-12-27T17:30:14.579Z,11.80
2022-12-27T17:33:14.030Z,17.40
2022-12-27T17:36:10.230Z,17.70
2022-12-27T17:38:55.792Z,16.80
2022-12-27T17:41:59.510Z,11.80
2022-12-27T17:44:45.017Z,14.90
2022-12-27T17:47:38.365Z,16.60
2022-12-27T17:50:18.961Z,10.30
2022-12-27T17:53:36.522Z,15.30
2022-12-27T17:56:45.447Z,13.90
2022-12-27T17:59:27.153Z,11.40
2022-12-27T18:02:05.564Z,10.30
2022-12-27T18:04:43.574Z,10.00
2022-12-27T18:07:23.403Z,11.90
2022-12-27T18:09:58.914Z,10.50
2022-12-27T18:12:35.846Z,12.00
2022-12-27T18:15:13.931Z,11.00
2022-12-27T18:17:49.699Z,8.90
2022-12-27T18:20:31.025Z,11.50
2022-12-27T18:23:17.896Z,9.50
2022-12-27T18:25:56.517Z,8.70
2022-12-27T18:28:33.379Z,9.10
2022-12-27T18:31:15.739Z,7.50
2022-12-27T18:33:52.590Z,9.90
2022-12-27T18:36:30.562Z,9.10
2022-12-27T18:39:07.385Z,8.80
2022-12-27T18:41:44.953Z,9.60
2022-12-27T18:44:26.465Z,11.10
2022-12-27T18:47:01.961Z,15.80
2022-12-27T18:49:37.322Z,10.10
2022-12-27T18:52:16.693Z,14.50
2022-12-27T18:54:49.171Z,11.80
2022-12-27T18:57:33.476Z,10.30
2022-12-27T19:00:17.226Z,11.90
2022-12-27T19:02:50.255Z,12.20
2022-12-27T19:05:31.391Z,15.00
2022-12-27T19:08:12.365Z,11.40
2022-12-27T19:10:51.701Z,12.60
2022-12-27T19:13:29.075Z,12.80
2022-12-27T19:16:02.191Z,12.90
2022-12-27T19:18:38.584Z,14.20
2022-12-27T19:21:16.360Z,14.10
2022-12-27T19:23:50.197Z,13.10
2022-12-27T19:26:33.193Z,12.00
2022-12-27T19:29:14.797Z,18.20
2022-12-27T19:31:54.740Z,14.30
2022-12-27T19:34:30.152Z,12.80
2022-12-27T19:37:02.346Z,17.00
2022-12-27T19:39:40.322Z,18.30
2022-12-27T19:42:16.163Z,11.30
2022-12-27T19:44:48.569Z,13.70
2022-12-27T19:47:20.763Z,19.00
2022-12-27T19:49:52.931Z,20.60
2022-12-27T19:52:27.696Z,17.60
2022-12-27T19:55:05.871Z,16.80
2022-12-27T19:57:40.266Z,19.80
2022-12-27T20:00:20.458Z,15.10
2022-12-27T20:02:52.710Z,17.70
2022-12-27T20:06:11.796Z,20.70
2022-12-27T20:08:29.148Z,14.60
2022-12-27T20:11:03.051Z,15.90
2022-12-27T20:13:35.360Z,17.00
2022-12-27T20:16:09.316Z,16.10
2022-12-27T20:18:44.290Z,20.70
2022-12-27T20:21:19.711Z,19.30
2022-12-27T20:23:52.501Z,14.10
2022-12-27T20:26:26.532Z,13.70
2022-12-27T20:29:00.026Z,24.40
2022-12-27T20:31:32.489Z,16.60
2022-12-27T20:34:05.185Z,13.10
2022-12-27T20:36:37.385Z,15.50
2022-12-27T20:39:09.871Z,12.10
2022-12-27T20:41:42.198Z,20.00
2022-12-27T20:44:15.895Z,13.50
2022-12-27T20:46:48.663Z,15.90
2022-12-27T20:49:20.865Z,13.40
2022-12-27T20:51:53.063Z,19.10
2022-12-27T20:54:25.917Z,26.30
2022-12-27T20:56:58.173Z,21.60
2022-12-27T20:59:30.534Z,18.40
2022-12-27T21:02:02.935Z,22.50
2022-12-27T21:04:35.436Z,14.80
2022-12-27T21:07:08.617Z,19.00
2022-12-27T21:09:40.825Z,16.90
2022-12-27T21:12:13.150Z,19.30
2022-12-27T21:14:45.436Z,15.50
2022-12-27T21:17:17.821Z,17.70
2022-12-27T21:19:50.080Z,15.40
2022-12-27T21:22:22.404Z,18.10
2022-12-27T21:24:54.685Z,22.80
2022-12-27T21:27:26.821Z,17.00
2022-12-27T21:29:59.100Z,14.10
2022-12-27T21:32:31.348Z,19.70
2022-12-27T21:35:03.700Z,18.80
2022-12-27T21:37:35.928Z,22.40
2022-12-27T21:40:10.541Z,20.00
2022-12-27T21:42:42.730Z,21.50
2022-12-27T21:45:15.180Z,16.40
2022-12-27T21:47:47.370Z,15.40
2022-12-27T21:50:19.707Z,19.70
2022-12-27T21:52:51.871Z,17.40
2022-12-27T21:55:24.073Z,18.60
2022-12-27T21:57:56.264Z,16.20
2022-12-27T22:00:28.558Z,17.20
2022-12-27T22:03:00.868Z,13.00
2022-12-27T22:05:33.512Z,13.10
2022-12-27T22:08:05.970Z,16.10
2022-12-27T22:10:38.221Z,14.30
2022-12-27T22:13:12.082Z,12.20
2022-12-27T22:15:44.352Z,14.00
2022-12-27T22:18:16.588Z,22.10
2022-12-27T22:20:48.754Z,19.60
2022-12-27T22:23:21.542Z,20.00
2022-12-27T22:25:53.947Z,14.60
2022-12-27T22:28:26.531Z,20.50
2022-12-27T22:30:59.211Z,20.60
2022-12-27T22:33:31.580Z,16.60
2022-12-27T22:36:08.151Z,18.90
2022-12-27T22:38:40.923Z,13.60
2022-12-27T22:41:15.648Z,18.70
2022-12-27T22:43:53.372Z,15.00
2022-12-27T22:46:28.444Z,14.00
2022-12-27T22:49:02.756Z,17.50
2022-12-27T22:51:37.264Z,18.90
2022-12-27T22:54:10.177Z,20.10
2022-12-27T22:56:43.938Z,17.10
2022-12-27T22:59:17.425Z,13.40
2022-12-27T23:01:49.763Z,12.70
2022-12-27T23:04:22.200Z,14.50
2022-12-27T23:06:54.469Z,16.70
2022-12-27T23:09:26.625Z,14.80
2022-12-27T23:11:58.793Z,12.10
2022-12-27T23:14:31.055Z,15.80
2022-12-27T23:17:03.326Z,12.20
2022-12-27T23:19:35.673Z,11.50
2022-12-27T23:22:08.463Z,12.40
2022-12-27T23:24:40.830Z,10.70
2022-12-27T23:27:13.041Z,12.90
2022-12-27T23:29:45.324Z,10.80
2022-12-27T23:32:17.587Z,16.20
2022-12-27T23:34:52.627Z,9.30
2022-12-27T23:37:24.806Z,12.40
2022-12-27T23:39:56.986Z,10.90
2022-12-27T23:42:29.364Z,9.60
2022-12-27T23:45:01.613Z,11.00
2022-12-27T23:47:33.820Z,10.50
2022-12-27T23:50:07.026Z,15.30
2022-12-27T23:52:39.195Z,12.50
2022-12-27T23:55:12.417Z,11.50
2022-12-27T23:57:44.743Z,7.30
